Canwood, Canada
Current Conditions -  °F | °C
As of 9:00 PM on Thursday 27 Nov 2014 (Local Time) from CYPA Reporting Station
Light Snow Light Snow  
Wind Chill: -15°   Ceiling: 1600
Heat Index:   Visibility: 15mi
Dew Point: -2°   Wind: 14mph
Humidity: 78%   Direction: 70°ENE
Pressure: 30.11"   Gusts: NA
Location:  53.37°N, 106.6°W
Report Text: CYPA 280300Z 07012KT 15SM -SN OVC016 M16/M19 A3011 RMK SC8 SLP240
Loading
Personal Weather Stations






























Interactive Weather Map New forecast layout! Learn more

10-Day Weather Forecast

Advertisements
Track Severe Weather on mobile